createdAt,value
2017-04-16T00:00:20.805Z,0
2017-04-16T00:01:01.405Z,0
2017-04-16T00:01:42.067Z,0
2017-04-16T00:02:22.681Z,0
2017-04-16T00:03:03.302Z,0
2017-04-16T00:03:43.911Z,0
2017-04-16T00:04:24.511Z,0
2017-04-16T00:05:05.124Z,0
2017-04-16T00:05:45.698Z,0
2017-04-16T00:06:26.308Z,0
2017-04-16T00:07:06.932Z,0
2017-04-16T00:07:47.545Z,0
2017-04-16T00:08:28.130Z,0
2017-04-16T00:09:08.745Z,0
2017-04-16T00:09:49.351Z,0
2017-04-16T00:10:29.935Z,0
2017-04-16T00:11:10.550Z,0
2017-04-16T00:11:51.147Z,0
2017-04-16T00:12:31.775Z,0
2017-04-16T00:13:12.403Z,0
2017-04-16T00:13:53.005Z,0
2017-04-16T00:14:33.596Z,0
2017-04-16T00:15:14.171Z,0
2017-04-16T00:15:54.756Z,0
2017-04-16T00:16:35.395Z,0
2017-04-16T00:17:15.978Z,0
2017-04-16T00:17:56.629Z,0
2017-04-16T00:18:37.195Z,0
2017-04-16T00:19:17.768Z,0
2017-04-16T00:19:58.364Z,0
2017-04-16T00:20:38.956Z,0
2017-04-16T00:21:19.517Z,0
2017-04-16T00:22:00.100Z,0
2017-04-16T00:22:40.677Z,0
2017-04-16T00:23:21.255Z,0
2017-04-16T00:24:01.832Z,0
2017-04-16T00:24:42.420Z,0
2017-04-16T00:25:23.037Z,0
2017-04-16T00:26:03.603Z,0
2017-04-16T00:26:44.195Z,0
2017-04-16T00:27:24.788Z,0
2017-04-16T00:28:05.362Z,0
2017-04-16T00:28:45.931Z,0
2017-04-16T00:29:26.548Z,0
2017-04-16T00:30:07.120Z,0
2017-04-16T00:30:47.711Z,0
2017-04-16T00:31:28.296Z,0
2017-04-16T00:32:08.881Z,0
2017-04-16T00:32:49.503Z,0
2017-04-16T00:33:30.093Z,0
2017-04-16T00:34:10.716Z,0
2017-04-16T00:34:51.326Z,0
2017-04-16T00:35:31.904Z,0
2017-04-16T00:36:12.487Z,0
2017-04-16T00:36:53.078Z,0
2017-04-16T00:37:33.671Z,0
2017-04-16T00:38:14.246Z,0
2017-04-16T00:38:54.833Z,0
2017-04-16T00:39:35.422Z,0
2017-04-16T00:40:16.005Z,0
2017-04-16T00:40:56.657Z,0
2017-04-16T00:41:37.273Z,0
2017-04-16T00:42:17.854Z,0
2017-04-16T00:42:58.451Z,0
2017-04-16T00:43:39.043Z,0
2017-04-16T00:44:19.705Z,0
2017-04-16T00:45:00.278Z,0
2017-04-16T00:45:40.880Z,0
2017-04-16T00:46:21.472Z,0
2017-04-16T00:47:02.080Z,0
2017-04-16T00:47:42.691Z,0
2017-04-16T00:48:23.283Z,0
2017-04-16T00:49:03.880Z,0
2017-04-16T00:49:44.466Z,0
2017-04-16T00:50:25.073Z,0
2017-04-16T00:51:05.719Z,0
2017-04-16T00:51:46.343Z,0
2017-04-16T00:52:26.930Z,0
2017-04-16T00:53:07.557Z,0
2017-04-16T00:53:48.120Z,0
2017-04-16T00:54:28.706Z,0
2017-04-16T00:55:09.303Z,0
2017-04-16T00:55:49.897Z,0
2017-04-16T00:56:30.518Z,0
2017-04-16T00:57:11.113Z,0
2017-04-16T00:57:51.713Z,0
2017-04-16T00:58:32.310Z,0
2017-04-16T00:59:12.913Z,0
2017-04-16T00:59:53.514Z,0
2017-04-16T01:00:34.132Z,0
2017-04-16T01:01:14.767Z,0
2017-04-16T01:01:55.371Z,0
2017-04-16T01:02:35.973Z,0
2017-04-16T01:03:16.552Z,0
2017-04-16T01:03:57.137Z,0
2017-04-16T01:04:37.768Z,0
2017-04-16T01:05:18.398Z,0
2017-04-16T01:05:59.025Z,0
2017-04-16T01:06:39.646Z,0
2017-04-16T01:07:20.288Z,0
2017-04-16T01:08:00.908Z,0
2017-04-16T01:08:41.546Z,0
2017-04-16T01:09:22.176Z,0
2017-04-16T01:10:02.807Z,0
2017-04-16T01:10:43.434Z,0
2017-04-16T01:11:24.028Z,0
2017-04-16T01:12:04.624Z,0
2017-04-16T01:12:45.208Z,0
2017-04-16T01:13:25.779Z,0
2017-04-16T01:14:06.367Z,0
2017-04-16T01:14:46.962Z,0
2017-04-16T01:15:27.570Z,0
2017-04-16T01:16:08.171Z,0
2017-04-16T01:16:48.745Z,0
2017-04-16T01:17:29.326Z,0
2017-04-16T01:18:09.930Z,0
2017-04-16T01:18:50.518Z,0
2017-04-16T01:19:31.100Z,0
2017-04-16T01:20:11.705Z,0
2017-04-16T01:20:52.307Z,0
2017-04-16T01:21:32.888Z,0
2017-04-16T01:22:13.479Z,0
2017-04-16T01:22:54.062Z,0
2017-04-16T01:23:34.635Z,0
2017-04-16T01:24:15.208Z,0
2017-04-16T01:24:55.781Z,0
2017-04-16T01:25:36.375Z,0
2017-04-16T01:26:16.949Z,0
2017-04-16T01:26:57.522Z,0
2017-04-16T01:27:38.111Z,0
2017-04-16T01:28:18.723Z,0
2017-04-16T01:28:59.322Z,0
2017-04-16T01:29:39.924Z,0
2017-04-16T01:30:20.535Z,0
2017-04-16T01:31:01.113Z,0
2017-04-16T01:31:41.705Z,0
2017-04-16T01:32:22.301Z,0
2017-04-16T01:33:02.902Z,0
2017-04-16T01:33:43.502Z,0
2017-04-16T01:34:24.082Z,0
2017-04-16T01:35:04.696Z,0
2017-04-16T01:35:45.388Z,0
2017-04-16T01:36:25.990Z,0
2017-04-16T01:37:06.594Z,0
2017-04-16T01:37:47.209Z,0
2017-04-16T01:38:27.813Z,0
2017-04-16T01:39:08.427Z,0
2017-04-16T01:39:49.000Z,0
2017-04-16T01:40:29.616Z,0
2017-04-16T01:41:10.217Z,0
2017-04-16T01:41:50.841Z,0
2017-04-16T01:42:31.422Z,0
2017-04-16T01:43:12.036Z,0
2017-04-16T01:43:52.628Z,0
2017-04-16T01:44:33.226Z,0
2017-04-16T01:45:13.816Z,0
2017-04-16T01:45:54.431Z,0
2017-04-16T01:46:35.034Z,0
2017-04-16T01:47:15.634Z,0
2017-04-16T01:47:56.293Z,0
2017-04-16T01:48:36.886Z,0
2017-04-16T01:49:17.494Z,0
2017-04-16T01:49:58.091Z,0
2017-04-16T01:50:38.695Z,0
2017-04-16T01:51:19.302Z,0
2017-04-16T01:51:59.906Z,0
2017-04-16T01:52:40.501Z,0
2017-04-16T01:53:21.110Z,0
2017-04-16T01:54:01.700Z,0
2017-04-16T01:54:42.311Z,0
2017-04-16T01:55:22.906Z,0
2017-04-16T01:56:03.558Z,0
2017-04-16T01:56:44.175Z,0
2017-04-16T01:57:24.775Z,0
2017-04-16T01:58:05.381Z,0
2017-04-16T01:58:45.995Z,0
2017-04-16T01:59:26.639Z,0
2017-04-16T02:00:07.237Z,0
2017-04-16T02:00:47.820Z,0
2017-04-16T02:01:28.453Z,0
2017-04-16T02:02:09.033Z,0
2017-04-16T02:02:49.643Z,0
2017-04-16T02:03:30.268Z,0
2017-04-16T02:04:10.868Z,0
2017-04-16T02:04:51.437Z,0
2017-04-16T02:05:32.018Z,0
2017-04-16T02:06:12.587Z,0
2017-04-16T02:06:53.237Z,0
2017-04-16T02:07:33.851Z,0
2017-04-16T02:08:14.443Z,0
2017-04-16T02:08:55.051Z,0
2017-04-16T02:09:35.634Z,0
2017-04-16T02:10:16.219Z,0
2017-04-16T02:10:56.804Z,0
2017-04-16T02:11:37.399Z,0
2017-04-16T02:12:17.995Z,0
2017-04-16T02:12:58.570Z,0
2017-04-16T02:13:39.183Z,0
2017-04-16T02:14:19.766Z,0
2017-04-16T02:15:00.370Z,0
2017-04-16T02:15:40.980Z,0
2017-04-16T02:16:21.542Z,0
2017-04-16T02:17:02.152Z,0
2017-04-16T02:17:42.727Z,0
2017-04-16T02:18:23.310Z,0
2017-04-16T02:19:03.901Z,0
2017-04-16T02:19:44.497Z,0
2017-04-16T02:20:25.123Z,0
2017-04-16T02:21:05.699Z,0
2017-04-16T02:21:46.289Z,0
2017-04-16T02:22:26.909Z,0
2017-04-16T02:23:07.528Z,0
2017-04-16T02:23:48.136Z,0
2017-04-16T02:24:28.746Z,0
2017-04-16T02:25:09.348Z,0
2017-04-16T02:25:49.926Z,0
2017-04-16T02:26:30.524Z,0
2017-04-16T02:27:11.132Z,0
2017-04-16T02:27:51.753Z,0
2017-04-16T02:28:32.337Z,0
2017-04-16T02:29:12.937Z,0
2017-04-16T02:29:53.564Z,0
2017-04-16T02:30:34.159Z,0
2017-04-16T02:31:14.740Z,0
2017-04-16T02:31:55.315Z,0
2017-04-16T02:32:35.934Z,0
2017-04-16T02:33:16.535Z,0
2017-04-16T02:33:57.110Z,0
2017-04-16T02:34:37.711Z,0
2017-04-16T02:35:18.343Z,0
2017-04-16T02:35:58.928Z,0
2017-04-16T02:36:39.504Z,0
2017-04-16T02:37:20.082Z,0
2017-04-16T02:38:00.675Z,0
2017-04-16T02:38:41.254Z,0
2017-04-16T02:39:21.831Z,0
2017-04-16T02:40:02.422Z,0
2017-04-16T02:40:43.010Z,0
2017-04-16T02:41:23.588Z,0
2017-04-16T02:42:04.184Z,0
2017-04-16T02:42:44.758Z,0
2017-04-16T02:43:25.370Z,0
2017-04-16T02:44:05.978Z,0
2017-04-16T02:44:46.568Z,0
2017-04-16T02:45:27.163Z,0
2017-04-16T02:46:07.784Z,0
2017-04-16T02:46:48.649Z,0
2017-04-16T02:47:29.228Z,0
2017-04-16T02:48:09.801Z,0
2017-04-16T02:48:50.374Z,0
2017-04-16T02:49:31.008Z,0
2017-04-16T02:50:11.590Z,0
2017-04-16T02:50:52.187Z,0
2017-04-16T02:51:32.758Z,0
2017-04-16T02:52:13.352Z,0
2017-04-16T02:52:54.019Z,0
2017-04-16T02:53:34.551Z,0
2017-04-16T02:54:15.147Z,0
2017-04-16T02:54:55.761Z,0
2017-04-16T02:55:36.352Z,0
2017-04-16T02:56:16.969Z,0
2017-04-16T02:56:57.554Z,0
2017-04-16T02:57:38.185Z,0
2017-04-16T02:58:18.794Z,0
2017-04-16T02:58:59.535Z,0
2017-04-16T02:59:39.977Z,0
2017-04-16T03:00:20.575Z,0
2017-04-16T03:01:01.151Z,0
2017-04-16T03:01:41.753Z,0
2017-04-16T03:02:22.357Z,0
2017-04-16T03:03:02.940Z,0
2017-04-16T03:03:43.516Z,0
2017-04-16T03:04:24.108Z,0
2017-04-16T03:05:04.705Z,0
2017-04-16T03:05:45.272Z,0
2017-04-16T03:06:25.865Z,0
2017-04-16T03:07:06.471Z,0
2017-04-16T03:07:47.073Z,0
2017-04-16T03:08:27.694Z,0
2017-04-16T03:09:08.287Z,0
2017-04-16T03:09:48.876Z,0
2017-04-16T03:10:29.526Z,0
2017-04-16T03:11:10.135Z,0
2017-04-16T03:11:50.748Z,0
2017-04-16T03:12:31.338Z,0
2017-04-16T03:13:11.947Z,0
2017-04-16T03:13:52.570Z,0
2017-04-16T03:14:33.202Z,0
2017-04-16T03:15:13.822Z,0
2017-04-16T03:15:54.400Z,0
2017-04-16T03:16:35.014Z,0
2017-04-16T03:17:15.610Z,0
2017-04-16T03:17:56.433Z,0
2017-04-16T03:18:36.984Z,0
2017-04-16T03:19:17.595Z,0
2017-04-16T03:19:58.255Z,0
2017-04-16T03:20:39.002Z,0
2017-04-16T03:21:19.703Z,0
2017-04-16T03:22:00.293Z,0
2017-04-16T03:22:40.878Z,0
2017-04-16T03:23:21.448Z,0
2017-04-16T03:24:02.024Z,0
2017-04-16T03:24:42.614Z,0
2017-04-16T03:25:23.195Z,0
2017-04-16T03:26:03.762Z,0
2017-04-16T03:26:44.353Z,0
2017-04-16T03:27:24.966Z,0
2017-04-16T03:28:05.544Z,0
2017-04-16T03:28:46.128Z,0
2017-04-16T03:29:26.713Z,0
2017-04-16T03:30:07.302Z,0
2017-04-16T03:30:47.893Z,0
2017-04-16T03:31:28.498Z,0
2017-04-16T03:32:09.059Z,0
2017-04-16T03:32:49.658Z,0
2017-04-16T03:33:30.242Z,0
2017-04-16T03:34:10.828Z,0
2017-04-16T03:34:51.491Z,0
2017-04-16T03:35:32.091Z,0
2017-04-16T03:36:12.681Z,0
2017-04-16T03:36:53.268Z,4
2017-04-16T03:37:33.850Z,4
2017-04-16T03:38:14.441Z,4
2017-04-16T03:38:55.053Z,4
2017-04-16T03:39:35.646Z,4
2017-04-16T03:40:16.240Z,0
2017-04-16T03:40:56.841Z,0
2017-04-16T03:41:37.465Z,4
2017-04-16T03:42:18.080Z,4
2017-04-16T03:42:58.664Z,4
2017-04-16T03:43:39.263Z,4
2017-04-16T03:44:19.861Z,4
2017-04-16T03:45:00.493Z,4
2017-04-16T03:45:41.078Z,4
2017-04-16T03:46:21.700Z,8
2017-04-16T03:47:02.281Z,8
2017-04-16T03:47:42.902Z,4
2017-04-16T03:48:23.471Z,4
2017-04-16T03:49:04.080Z,4
2017-04-16T03:49:44.699Z,4
2017-04-16T03:50:25.334Z,8
2017-04-16T03:51:05.922Z,8
2017-04-16T03:51:46.490Z,8
2017-04-16T03:52:27.077Z,8
2017-04-16T03:53:07.700Z,8
2017-04-16T03:53:48.302Z,12
2017-04-16T03:54:28.918Z,8
2017-04-16T03:55:09.487Z,8
2017-04-16T03:55:50.060Z,12
2017-04-16T03:56:30.660Z,12
2017-04-16T03:57:11.245Z,8
2017-04-16T03:57:51.868Z,12
2017-04-16T03:58:32.445Z,8
2017-04-16T03:59:13.067Z,12
2017-04-16T03:59:53.657Z,12
2017-04-16T04:00:34.231Z,12
2017-04-16T04:01:14.824Z,16
2017-04-16T04:01:55.476Z,20
2017-04-16T04:02:36.078Z,20
2017-04-16T04:03:16.658Z,24
2017-04-16T04:03:57.230Z,28
2017-04-16T04:04:37.798Z,32
2017-04-16T04:05:18.378Z,40
2017-04-16T04:05:58.992Z,44
2017-04-16T04:06:39.594Z,48
2017-04-16T04:07:20.194Z,52
2017-04-16T04:08:00.791Z,56
2017-04-16T04:08:41.376Z,68
2017-04-16T04:09:21.980Z,76
2017-04-16T04:10:02.546Z,92
2017-04-16T04:10:43.132Z,112
2017-04-16T04:11:23.726Z,120
2017-04-16T04:12:04.317Z,128
2017-04-16T04:12:44.906Z,132
2017-04-16T04:13:25.496Z,140
2017-04-16T04:14:06.075Z,156
2017-04-16T04:14:46.650Z,164
2017-04-16T04:15:27.247Z,164
2017-04-16T04:16:07.855Z,164
2017-04-16T04:16:48.454Z,172
2017-04-16T04:17:29.083Z,176
2017-04-16T04:18:09.631Z,192
2017-04-16T04:18:50.218Z,220
2017-04-16T04:19:30.843Z,240
2017-04-16T04:20:11.434Z,256
2017-04-16T04:20:52.037Z,264
2017-04-16T04:21:32.612Z,284
2017-04-16T04:22:13.220Z,292
2017-04-16T04:22:53.791Z,264
2017-04-16T04:23:34.377Z,224
2017-04-16T04:24:14.972Z,184
2017-04-16T04:24:55.572Z,152
2017-04-16T04:25:36.207Z,140
2017-04-16T04:26:16.786Z,128
2017-04-16T04:26:57.378Z,124
2017-04-16T04:27:37.971Z,120
2017-04-16T04:28:18.559Z,116
2017-04-16T04:28:59.174Z,112
2017-04-16T04:29:39.789Z,112
2017-04-16T04:30:20.375Z,116
2017-04-16T04:31:00.975Z,128
2017-04-16T04:31:41.571Z,140
2017-04-16T04:32:22.190Z,172
2017-04-16T04:33:02.782Z,212
2017-04-16T04:33:43.395Z,244
2017-04-16T04:34:23.969Z,272
2017-04-16T04:35:04.565Z,276
2017-04-16T04:35:45.194Z,264
2017-04-16T04:36:25.785Z,220
2017-04-16T04:37:06.394Z,200
2017-04-16T04:37:47.046Z,216
2017-04-16T04:38:27.617Z,256
2017-04-16T04:39:08.199Z,264
2017-04-16T04:39:48.804Z,320
2017-04-16T04:40:29.414Z,324
2017-04-16T04:41:10.004Z,276
2017-04-16T04:41:50.622Z,236
2017-04-16T04:42:31.216Z,196
2017-04-16T04:43:11.786Z,192
2017-04-16T04:43:52.376Z,220
2017-04-16T04:44:32.995Z,236
2017-04-16T04:45:13.608Z,272
2017-04-16T04:45:54.234Z,280
2017-04-16T04:46:34.883Z,292
2017-04-16T04:47:15.472Z,280
2017-04-16T04:47:56.114Z,284
2017-04-16T04:48:36.688Z,344
2017-04-16T04:49:17.292Z,292
2017-04-16T04:49:57.889Z,288
2017-04-16T04:50:38.471Z,336
2017-04-16T04:51:19.038Z,352
2017-04-16T04:51:59.632Z,312
2017-04-16T04:52:40.223Z,308
2017-04-16T04:53:20.835Z,320
2017-04-16T04:54:01.443Z,312
2017-04-16T04:54:42.045Z,284
2017-04-16T04:55:22.652Z,284
2017-04-16T04:56:03.208Z,308
2017-04-16T04:56:43.817Z,280
2017-04-16T04:57:24.410Z,276
2017-04-16T04:58:04.999Z,280
2017-04-16T04:58:45.609Z,284
2017-04-16T04:59:26.219Z,260
2017-04-16T05:00:06.798Z,236
2017-04-16T05:00:47.407Z,220
2017-04-16T05:01:28.070Z,224
2017-04-16T05:02:08.657Z,228
2017-04-16T05:02:49.256Z,240
2017-04-16T05:03:29.902Z,240
2017-04-16T05:04:10.529Z,252
2017-04-16T05:04:51.148Z,264
2017-04-16T05:05:31.770Z,268
2017-04-16T05:06:12.356Z,280
2017-04-16T05:06:52.947Z,256
2017-04-16T05:07:33.534Z,240
2017-04-16T05:08:14.148Z,248
2017-04-16T05:08:54.764Z,260
2017-04-16T05:09:35.365Z,256
2017-04-16T05:10:15.943Z,256
2017-04-16T05:10:56.559Z,264
2017-04-16T05:11:37.138Z,272
2017-04-16T05:12:17.744Z,272
2017-04-16T05:12:58.356Z,264
2017-04-16T05:13:38.987Z,264
2017-04-16T05:14:19.649Z,260
2017-04-16T05:15:00.251Z,264
2017-04-16T05:15:40.844Z,280
2017-04-16T05:16:21.441Z,304
2017-04-16T05:17:02.050Z,332
2017-04-16T05:17:42.676Z,352
2017-04-16T05:18:23.274Z,372
2017-04-16T05:19:03.873Z,420
2017-04-16T05:19:44.474Z,464
2017-04-16T05:20:25.063Z,488
2017-04-16T05:21:05.657Z,516
2017-04-16T05:21:46.264Z,608
2017-04-16T05:22:26.841Z,620
2017-04-16T05:23:07.476Z,676
2017-04-16T05:23:48.050Z,792
2017-04-16T05:24:28.635Z,768
2017-04-16T05:25:09.231Z,684
2017-04-16T05:25:49.834Z,560
2017-04-16T05:26:30.464Z,560
2017-04-16T05:27:11.048Z,528
2017-04-16T05:27:51.670Z,460
2017-04-16T05:28:32.296Z,400
2017-04-16T05:29:12.881Z,360
2017-04-16T05:29:53.457Z,340
2017-04-16T05:30:34.074Z,328
2017-04-16T05:31:14.659Z,336
2017-04-16T05:31:55.229Z,372
2017-04-16T05:32:35.803Z,416
2017-04-16T05:33:16.387Z,492
2017-04-16T05:33:56.961Z,560
2017-04-16T05:34:37.584Z,644
2017-04-16T05:35:18.166Z,752
2017-04-16T05:35:58.784Z,892
2017-04-16T05:36:39.370Z,1072
2017-04-16T05:37:19.963Z,856
2017-04-16T05:38:00.545Z,824
2017-04-16T05:38:41.174Z,772
2017-04-16T05:39:21.766Z,844
2017-04-16T05:40:02.360Z,888
2017-04-16T05:40:42.962Z,808
2017-04-16T05:41:23.585Z,696
2017-04-16T05:42:04.166Z,544
2017-04-16T05:42:44.746Z,504
2017-04-16T05:43:25.322Z,516
2017-04-16T05:44:05.896Z,556
2017-04-16T05:44:46.498Z,580
2017-04-16T05:45:27.115Z,592
2017-04-16T05:46:07.725Z,588
2017-04-16T05:46:48.331Z,588
2017-04-16T05:47:28.935Z,564
2017-04-16T05:48:09.522Z,572
2017-04-16T05:48:50.119Z,556
2017-04-16T05:49:30.724Z,496
2017-04-16T05:50:11.336Z,468
2017-04-16T05:50:51.944Z,444
2017-04-16T05:51:32.547Z,488
2017-04-16T05:52:13.146Z,608
2017-04-16T05:52:53.818Z,708
2017-04-16T05:53:34.407Z,728
2017-04-16T05:54:15.015Z,776
2017-04-16T05:54:55.650Z,760
2017-04-16T05:55:36.250Z,756
2017-04-16T05:56:16.856Z,880
2017-04-16T05:56:57.457Z,676
2017-04-16T05:57:38.039Z,524
2017-04-16T05:58:18.675Z,420
2017-04-16T05:58:59.307Z,408
2017-04-16T05:59:39.881Z,456
2017-04-16T06:00:20.462Z,496
2017-04-16T06:01:01.063Z,632
2017-04-16T06:01:41.671Z,696
2017-04-16T06:02:22.269Z,684
2017-04-16T06:03:02.892Z,668
2017-04-16T06:03:43.497Z,680
2017-04-16T06:04:24.109Z,776
2017-04-16T06:05:04.676Z,796
2017-04-16T06:05:45.288Z,800
2017-04-16T06:06:25.872Z,844
2017-04-16T06:07:06.452Z,868
2017-04-16T06:07:47.086Z,836
2017-04-16T06:08:27.660Z,824
2017-04-16T06:09:08.265Z,864
2017-04-16T06:09:48.855Z,936
2017-04-16T06:10:29.448Z,1024
2017-04-16T06:11:10.037Z,1064
2017-04-16T06:11:50.639Z,1156
2017-04-16T06:12:31.266Z,1200
2017-04-16T06:13:11.947Z,1284
2017-04-16T06:13:52.570Z,1424
2017-04-16T06:14:33.219Z,1544
2017-04-16T06:15:13.809Z,1676
2017-04-16T06:15:54.419Z,1816
2017-04-16T06:16:35.023Z,1856
2017-04-16T06:17:15.612Z,1824
2017-04-16T06:17:56.210Z,1820
2017-04-16T06:18:36.808Z,2172
2017-04-16T06:19:17.417Z,2508
2017-04-16T06:19:58.014Z,2792
2017-04-16T06:20:38.584Z,2776
2017-04-16T06:21:19.165Z,3364
2017-04-16T06:21:59.761Z,1900
2017-04-16T06:22:40.363Z,2048
2017-04-16T06:23:20.989Z,2092
2017-04-16T06:24:01.628Z,1872
2017-04-16T06:24:42.260Z,1580
2017-04-16T06:25:22.878Z,1372
2017-04-16T06:26:03.466Z,1376
2017-04-16T06:26:44.042Z,1360
2017-04-16T06:27:24.615Z,1432
2017-04-16T06:28:05.214Z,1448
2017-04-16T06:28:45.786Z,1524
2017-04-16T06:29:26.361Z,1600
2017-04-16T06:30:06.997Z,1388
2017-04-16T06:30:47.586Z,1424
2017-04-16T06:31:28.182Z,1508
2017-04-16T06:32:08.767Z,1580
2017-04-16T06:32:49.367Z,1632
2017-04-16T06:33:29.967Z,2004
2017-04-16T06:34:10.546Z,2008
2017-04-16T06:34:51.149Z,2624
2017-04-16T06:35:31.762Z,4580
2017-04-16T06:36:12.376Z,12464
2017-04-16T06:36:52.968Z,8380
2017-04-16T06:37:33.617Z,11536
2017-04-16T06:38:14.250Z,7588
2017-04-16T06:38:54.821Z,3924
2017-04-16T06:39:35.445Z,3112
2017-04-16T06:40:16.050Z,2576
2017-04-16T06:40:56.643Z,2384
2017-04-16T06:41:37.255Z,2244
2017-04-16T06:42:17.831Z,2280
2017-04-16T06:42:58.479Z,2328
2017-04-16T06:43:39.077Z,2592
2017-04-16T06:44:19.685Z,2716
2017-04-16T06:45:00.356Z,2868
2017-04-16T06:45:40.916Z,3436
2017-04-16T06:46:21.522Z,4300
2017-04-16T06:47:02.134Z,4916
2017-04-16T06:47:42.742Z,5384
2017-04-16T06:48:23.328Z,5964
2017-04-16T06:49:03.943Z,6904
2017-04-16T06:49:44.536Z,9900
2017-04-16T06:50:25.151Z,14708
2017-04-16T06:51:05.752Z,13644
2017-04-16T06:51:46.387Z,19552
2017-04-16T06:52:27.010Z,12864
2017-04-16T06:53:07.575Z,12192
2017-04-16T06:53:48.161Z,15068
2017-04-16T06:54:28.763Z,7296
2017-04-16T06:55:09.350Z,3428
2017-04-16T06:55:49.954Z,2464
2017-04-16T06:56:30.566Z,2112
2017-04-16T06:57:11.199Z,1764
2017-04-16T06:57:51.817Z,1520
2017-04-16T06:58:32.408Z,1516
2017-04-16T06:59:12.998Z,1628
2017-04-16T06:59:53.589Z,1516
2017-04-16T07:00:34.204Z,1268
2017-04-16T07:01:14.799Z,1024
2017-04-16T07:01:55.426Z,868
2017-04-16T07:02:36.084Z,760
2017-04-16T07:03:16.666Z,732
2017-04-16T07:03:57.342Z,740
2017-04-16T07:04:37.939Z,772
2017-04-16T07:05:18.527Z,932
2017-04-16T07:05:59.178Z,952
2017-04-16T07:06:39.751Z,920
2017-04-16T07:07:20.428Z,860
2017-04-16T07:08:01.056Z,920
2017-04-16T07:08:41.671Z,1184
2017-04-16T07:09:22.261Z,1484
2017-04-16T07:10:02.865Z,2200
2017-04-16T07:10:43.462Z,2628
2017-04-16T07:11:24.116Z,2912
2017-04-16T07:12:04.737Z,3112
2017-04-16T07:12:45.349Z,3312
2017-04-16T07:13:25.984Z,3564
2017-04-16T07:14:06.638Z,3408
2017-04-16T07:14:47.269Z,2724
2017-04-16T07:15:27.829Z,2248
2017-04-16T07:16:08.461Z,2020
2017-04-16T07:16:49.064Z,1804
2017-04-16T07:17:29.799Z,1724
2017-04-16T07:18:10.292Z,1540
2017-04-16T07:18:50.886Z,1368
2017-04-16T07:19:31.512Z,1220
2017-04-16T07:20:12.100Z,1116
2017-04-16T07:20:52.719Z,1156
2017-04-16T07:21:33.297Z,1188
2017-04-16T07:22:13.930Z,1412
2017-04-16T07:22:54.499Z,1808
2017-04-16T07:23:35.081Z,2060
2017-04-16T07:24:15.659Z,2272
2017-04-16T07:24:56.259Z,2416
2017-04-16T07:25:36.877Z,2356
2017-04-16T07:26:17.454Z,2152
2017-04-16T07:26:58.029Z,1852
2017-04-16T07:27:38.622Z,1744
2017-04-16T07:28:19.187Z,1832
2017-04-16T07:28:59.759Z,1580
2017-04-16T07:29:40.337Z,1452
2017-04-16T07:30:21.002Z,1420
2017-04-16T07:31:01.583Z,1388
2017-04-16T07:31:42.166Z,1196
2017-04-16T07:32:22.824Z,1064
2017-04-16T07:33:03.380Z,1028
2017-04-16T07:33:44.027Z,856
2017-04-16T07:34:24.652Z,804
2017-04-16T07:35:05.244Z,780
2017-04-16T07:35:45.856Z,704
2017-04-16T07:36:26.481Z,576
2017-04-16T07:37:07.103Z,588
2017-04-16T07:37:47.650Z,680
2017-04-16T07:38:28.307Z,712
2017-04-16T07:39:08.891Z,828
2017-04-16T07:39:49.489Z,1048
2017-04-16T07:40:30.064Z,1196
2017-04-16T07:41:10.644Z,1212
2017-04-16T07:41:51.280Z,1160
2017-04-16T07:42:31.900Z,1064
2017-04-16T07:43:12.483Z,1056
2017-04-16T07:43:53.156Z,1092
2017-04-16T07:44:33.772Z,1044
2017-04-16T07:45:14.387Z,1088
2017-04-16T07:45:54.988Z,1172
2017-04-16T07:46:35.630Z,1244
2017-04-16T07:47:16.277Z,1532
2017-04-16T07:47:56.893Z,1916
2017-04-16T07:48:37.521Z,2004
2017-04-16T07:49:18.122Z,1844
2017-04-16T07:49:58.762Z,1792
2017-04-16T07:50:39.339Z,1848
2017-04-16T07:51:19.940Z,1968
2017-04-16T07:52:00.542Z,1804
2017-04-16T07:52:41.191Z,1448
2017-04-16T07:53:21.799Z,1244
2017-04-16T07:54:02.502Z,1120
2017-04-16T07:54:43.091Z,1108
2017-04-16T07:55:23.760Z,1004
2017-04-16T07:56:04.387Z,996
2017-04-16T07:56:45.150Z,956
2017-04-16T07:57:25.791Z,956
2017-04-16T07:58:06.282Z,948
2017-04-16T07:58:46.942Z,936
2017-04-16T07:59:27.589Z,972
2017-04-16T08:00:08.472Z,1100
2017-04-16T08:00:48.932Z,1188
2017-04-16T08:01:29.599Z,1396
2017-04-16T08:02:10.313Z,1624
2017-04-16T08:02:50.919Z,1772
2017-04-16T08:03:31.529Z,1904
2017-04-16T08:04:12.233Z,2072
2017-04-16T08:04:52.890Z,2400
2017-04-16T08:05:33.524Z,3184
2017-04-16T08:06:14.288Z,3536
2017-04-16T08:06:55.049Z,3744
2017-04-16T08:07:35.763Z,3912
2017-04-16T08:08:16.390Z,4464
2017-04-16T08:08:56.928Z,7200
2017-04-16T08:09:37.588Z,7596
2017-04-16T08:10:18.376Z,10192
2017-04-16T08:10:59.038Z,8772
2017-04-16T08:11:39.824Z,12408
2017-04-16T08:12:20.413Z,15748
2017-04-16T08:13:01.217Z,16364
2017-04-16T08:13:41.972Z,15432
2017-04-16T08:14:22.619Z,13592
2017-04-16T08:15:03.217Z,29824
2017-04-16T08:15:43.845Z,15684
2017-04-16T08:16:24.442Z,19648
2017-04-16T08:17:05.180Z,25888
2017-04-16T08:17:45.778Z,17408
2017-04-16T08:18:26.370Z,21120
2017-04-16T08:19:07.013Z,16704
2017-04-16T08:19:47.637Z,15824
2017-04-16T08:20:28.274Z,19904
2017-04-16T08:21:08.916Z,20192
2017-04-16T08:21:49.733Z,19552
2017-04-16T08:22:30.328Z,18016
2017-04-16T08:23:10.972Z,17792
2017-04-16T08:23:51.657Z,15788
2017-04-16T08:24:32.259Z,14460
2017-04-16T08:25:12.882Z,13240
2017-04-16T08:25:53.533Z,12340
2017-04-16T08:26:34.215Z,11872
2017-04-16T08:27:14.826Z,10980
2017-04-16T08:27:55.517Z,9896
2017-04-16T08:28:36.185Z,8852
2017-04-16T08:29:16.813Z,8112
2017-04-16T08:29:57.456Z,7952
2017-04-16T08:30:38.077Z,7960
2017-04-16T08:31:18.670Z,8232
2017-04-16T08:31:59.320Z,7948
2017-04-16T08:32:39.968Z,7564
2017-04-16T08:33:20.605Z,8516
2017-04-16T08:34:01.261Z,12840
2017-04-16T08:34:41.867Z,11248
2017-04-16T08:35:22.498Z,10364
2017-04-16T08:36:03.210Z,10088
2017-04-16T08:36:43.860Z,9732
2017-04-16T08:37:24.539Z,9592
2017-04-16T08:38:05.182Z,10172
2017-04-16T08:38:45.849Z,10892
2017-04-16T08:39:26.531Z,11792
2017-04-16T08:40:07.193Z,12052
2017-04-16T08:40:47.805Z,13920
2017-04-16T08:41:28.398Z,14636
2017-04-16T08:42:09.018Z,15188
2017-04-16T08:42:49.676Z,15272
2017-04-16T08:43:30.315Z,14872
2017-04-16T08:44:10.906Z,14548
2017-04-16T08:44:51.551Z,13932
2017-04-16T08:45:32.202Z,13512
2017-04-16T08:46:12.871Z,13424
2017-04-16T08:46:53.517Z,13440
2017-04-16T08:47:34.173Z,14088
2017-04-16T08:48:15.004Z,13628
2017-04-16T08:48:55.573Z,13840
2017-04-16T08:49:36.194Z,13632
2017-04-16T08:50:16.945Z,13232
2017-04-16T08:50:57.475Z,15840
2017-04-16T08:51:38.217Z,13848
2017-04-16T08:52:18.810Z,14164
2017-04-16T08:52:59.386Z,14348
2017-04-16T08:53:39.990Z,16096
2017-04-16T08:54:20.609Z,13060
2017-04-16T08:55:01.228Z,12276
2017-04-16T08:55:41.834Z,12936
2017-04-16T08:56:22.469Z,11240
2017-04-16T08:57:03.099Z,8904
2017-04-16T08:57:43.745Z,8012
2017-04-16T08:58:24.426Z,7672
2017-04-16T08:59:05.064Z,6744
2017-04-16T08:59:45.707Z,5560
2017-04-16T09:00:26.364Z,5192
2017-04-16T09:01:07.020Z,5684
2017-04-16T09:01:47.658Z,5952
2017-04-16T09:02:28.261Z,6740
2017-04-16T09:03:08.875Z,8316
2017-04-16T09:03:49.533Z,7824
2017-04-16T09:04:30.152Z,6540
2017-04-16T09:05:10.770Z,5780
2017-04-16T09:05:51.359Z,5628
2017-04-16T09:06:31.973Z,5284
2017-04-16T09:07:12.640Z,4988
2017-04-16T09:07:53.258Z,4900
2017-04-16T09:08:33.816Z,4444
2017-04-16T09:09:14.393Z,4716
2017-04-16T09:09:54.980Z,4000
2017-04-16T09:10:35.626Z,3816
2017-04-16T09:11:16.336Z,4084
2017-04-16T09:11:56.918Z,4472
2017-04-16T09:12:37.543Z,4636
2017-04-16T09:13:18.130Z,4848
2017-04-16T09:13:58.735Z,5512
2017-04-16T09:14:39.364Z,5776
2017-04-16T09:15:19.951Z,5920
2017-04-16T09:16:00.555Z,5928
2017-04-16T09:16:41.161Z,5548
2017-04-16T09:17:21.736Z,5108
2017-04-16T09:18:02.369Z,5244
2017-04-16T09:18:42.924Z,4996
2017-04-16T09:19:23.536Z,4184
2017-04-16T09:20:04.129Z,3340
2017-04-16T09:20:44.806Z,2596
2017-04-16T09:21:25.469Z,1940
2017-04-16T09:22:06.104Z,1548
2017-04-16T09:22:46.755Z,1340
2017-04-16T09:23:27.366Z,1160
2017-04-16T09:24:08.010Z,1160
2017-04-16T09:24:48.588Z,1272
2017-04-16T09:25:29.213Z,1340
2017-04-16T09:26:09.866Z,1444
2017-04-16T09:26:50.494Z,1596
2017-04-16T09:27:31.092Z,1840
2017-04-16T09:28:11.763Z,2212